Time;durP1;ratioP1;P1;durP2;ratioP2;P2;SDS_P1;SDS_P2;PMS_P1;PMS_P2;Temp;Humidity;BMP_temperature;BMP_pressure;BME280_temperature;BME280_humidity;BME280_pressure;Samples;Min_cycle;Max_cycle;Signal;HPM_P1;HPM_P2
2022/05/24 00:02:30;;;;;;;4.35;2.15;;;;;;;;;;6212368;28;20100;-70
2022/05/24 00:05:34;;;;;;;2.60;1.92;;;;;;;;;;6211813;28;20097;-68
2022/05/24 00:08:37;;;;;;;7.47;2.22;;;;;;;;;;6211090;28;20162;-70
2022/05/24 00:11:39;;;;;;;6.82;2.15;;;;;;;;;;6210715;28;20050;-69
2022/05/24 00:18:01;;;;;;;8.20;2.17;;;;;;;;;;6211109;28;20050;-71
2022/05/24 00:21:05;;;;;;;5.07;2.05;;;;;;;;;;6212362;28;20277;-71
2022/05/24 00:24:08;;;;;;;7.30;2.33;;;;;;;;;;6207987;28;20046;-71
2022/05/24 00:27:10;;;;;;;;;;;;;;;;;;6208559;28;20050;-72
2022/05/24 00:30:12;;;;;;;8.75;2.15;;;;;;;;;;6210062;28;19938;-72
2022/05/24 00:33:14;;;;;;;3.90;2.17;;;;;;;;;;6212541;28;20060;-70
2022/05/24 00:36:17;;;;;;;6.80;2.10;;;;;;;;;;6209121;28;20066;-72
2022/05/24 00:39:20;;;;;;;;;;;;;;;;;;6213588;28;20052;-72
2022/05/24 00:42:24;;;;;;;5.30;1.92;;;;;;;;;;6210494;28;19972;-71
2022/05/24 00:45:32;;;;;;;4.97;2.00;;;;;;;;;;6209063;28;20129;-71
2022/05/24 00:48:37;;;;;;;3.03;1.90;;;;;;;;;;6221238;28;20253;-71
2022/05/24 00:51:41;;;;;;;3.60;2.10;;;;;;;;;;6216159;28;20060;-74
2022/05/24 00:54:45;;;;;;;3.28;1.90;;;;;;;;;;6214640;28;20403;-75
2022/05/24 00:57:53;;;;;;;2.72;1.92;;;;;;;;;;6217955;28;20057;-74
2022/05/24 01:00:55;;;;;;;3.72;1.92;;;;;;;;;;6215119;28;20042;-73
2022/05/24 01:03:56;;;;;;;4.07;2.10;;;;;;;;;;6214748;28;20333;-69
2022/05/24 01:06:58;;;;;;;6.88;2.40;;;;;;;;;;6212173;28;20072;-73
2022/05/24 01:10:03;;;;;;;3.38;1.75;;;;;;;;;;6218271;28;20046;-69
2022/05/24 01:13:07;;;;;;;2.90;1.98;;;;;;;;;;6213528;28;20054;-68
2022/05/24 01:16:09;;;;;;;5.60;2.30;;;;;;;;;;6215738;28;20105;-68
2022/05/24 01:19:18;;;;;;;4.25;1.95;;;;;;;;;;6220728;28;20101;-71
2022/05/24 01:22:32;;;;;;;5.13;2.10;;;;;;;;;;6215585;28;20069;-71
2022/05/24 01:25:39;;;;;;;6.28;2.75;;;;;;;;;;6215528;28;20046;-70
2022/05/24 01:28:46;;;;;;;2.67;1.63;;;;;;;;;;6215729;28;20046;-71
2022/05/24 01:38:27;;;;;;;2.83;1.95;;;;;;;;;;6211520;28;20046;-70
2022/05/24 01:41:31;;;;;;;5.50;2.10;;;;;;;;;;6215139;28;20050;-70
2022/05/24 01:44:39;;;;;;;3.47;1.92;;;;;;;;;;6214659;28;20323;-70
2022/05/24 01:47:43;;;;;;;6.05;2.08;;;;;;;;;;6216750;28;20372;-69
2022/05/24 01:50:45;;;;;;;7.45;2.58;;;;;;;;;;6213963;28;20050;-70
2022/05/24 01:53:49;;;;;;;4.95;2.03;;;;;;;;;;6217351;28;20065;-70
2022/05/24 01:56:51;;;;;;;;;;;;;;;;;;6208552;28;20054;-68
2022/05/24 01:59:56;;;;;;;3.53;1.60;;;;;;;;;;6210799;28;19992;-68
2022/05/24 02:02:57;;;;;;;3.90;2.10;;;;;;;;;;6210079;28;20077;-68
2022/05/24 02:05:59;;;;;;;5.57;1.98;;;;;;;;;;6210699;28;20054;-69
2022/05/24 02:09:01;;;;;;;3.80;2.17;;;;;;;;;;6213640;28;20080;-68
2022/05/24 02:12:06;;;;;;;3.50;1.98;;;;;;;;;;6214643;28;20108;-68
2022/05/24 02:15:12;;;;;;;4.90;2.10;;;;;;;;;;6214453;28;20054;-67
2022/05/24 02:18:16;;;;;;;3.78;2.42;;;;;;;;;;6217256;28;20050;-68
2022/05/24 02:21:18;;;;;;;3.70;2.20;;;;;;;;;;6219745;28;20333;-68
2022/05/24 02:24:22;;;;;;;4.47;2.20;;;;;;;;;;6214247;28;20134;-68
2022/05/24 02:27:24;;;;;;;4.40;2.10;;;;;;;;;;6209699;28;20058;-67
2022/05/24 02:30:29;;;;;;;4.13;2.60;;;;;;;;;;6210487;28;20100;-68
2022/05/24 02:33:32;;;;;;;4.55;2.42;;;;;;;;;;6211326;28;20056;-68
2022/05/24 02:36:34;;;;;;;4.18;2.30;;;;;;;;;;6210370;28;20058;-68
2022/05/24 02:41:28;;;;;;;3.35;2.10;;;;;;;;;;6214238;28;20073;-70
2022/05/24 02:42:57;;;;;;;3.72;1.90;;;;;;;;;;6212429;28;20045;-70
2022/05/24 02:46:00;;;;;;;4.40;2.40;;;;;;;;;;6210772;28;20046;-71
2022/05/24 02:49:01;;;;;;;4.90;2.17;;;;;;;;;;6214207;28;20038;-70
2022/05/24 02:52:03;;;;;;;5.53;2.60;;;;;;;;;;6208796;28;20092;-70
2022/05/24 02:55:05;;;;;;;3.47;2.25;;;;;;;;;;6210853;28;20054;-70
2022/05/24 02:58:07;;;;;;;4.90;2.50;;;;;;;;;;6207597;28;20096;-70
2022/05/24 03:01:15;;;;;;;3.38;2.30;;;;;;;;;;6210568;28;20041;-70
2022/05/24 03:04:17;;;;;;;4.95;2.10;;;;;;;;;;6211722;28;20285;-71
2022/05/24 03:10:38;;;;;;;4.78;2.40;;;;;;;;;;6215162;28;20257;-71
2022/05/24 03:17:01;;;;;;;5.15;2.47;;;;;;;;;;6213489;28;20041;-70
2022/05/24 03:20:03;;;;;;;5.28;2.50;;;;;;;;;;6212757;28;20045;-70
2022/05/24 03:23:06;;;;;;;3.50;2.53;;;;;;;;;;6208360;28;20322;-70
2022/05/24 03:26:08;;;;;;;5.70;2.30;;;;;;;;;;6209871;28;20109;-71
2022/05/24 03:29:10;;;;;;;5.17;2.33;;;;;;;;;;6211019;28;20061;-71
2022/05/24 03:32:16;;;;;;;10.40;2.50;;;;;;;;;;6209667;28;20457;-70
2022/05/24 03:35:17;;;;;;;3.60;2.28;;;;;;;;;;6209099;28;20349;-70
2022/05/24 03:38:19;;;;;;;9.73;3.00;;;;;;;;;;6214041;28;20046;-70
2022/05/24 03:41:21;;;;;;;4.38;2.33;;;;;;;;;;6210590;28;20054;-71
2022/05/24 03:44:22;;;;;;;9.48;2.72;;;;;;;;;;6204799;28;20081;-71
2022/05/24 03:47:25;;;;;;;8.23;2.40;;;;;;;;;;6207979;28;20241;-71
2022/05/24 03:50:27;;;;;;;7.13;2.35;;;;;;;;;;6209172;28;20244;-70
2022/05/24 03:53:29;;;;;;;5.68;2.35;;;;;;;;;;6212840;28;20101;-71
2022/05/24 03:56:31;;;;;;;6.20;2.88;;;;;;;;;;6213279;28;20387;-71
2022/05/24 03:59:32;;;;;;;5.43;2.90;;;;;;;;;;6207786;28;20113;-71
2022/05/24 04:02:35;;;;;;;9.80;2.80;;;;;;;;;;6209791;28;20046;-71
2022/05/24 04:05:37;;;;;;;5.93;2.85;;;;;;;;;;6208061;28;20054;-71
2022/05/24 04:08:39;;;;;;;8.00;2.88;;;;;;;;;;6207536;28;20054;-70
2022/05/24 04:11:41;;;;;;;3.88;2.65;;;;;;;;;;6205820;28;20046;-70
2022/05/24 04:14:42;;;;;;;8.27;2.55;;;;;;;;;;6203479;28;20035;-70
2022/05/24 04:17:46;;;;;;;5.20;2.90;;;;;;;;;;6208437;28;20065;-71
2022/05/24 04:20:48;;;;;;;4.50;2.38;;;;;;;;;;6209044;28;20359;-70
2022/05/24 04:23:50;;;;;;;7.32;2.65;;;;;;;;;;6216891;28;20248;-70
2022/05/24 04:26:51;;;;;;;12.68;2.97;;;;;;;;;;6214204;28;20277;-70
2022/05/24 04:29:53;;;;;;;11.20;2.95;;;;;;;;;;6213864;28;20054;-69
2022/05/24 04:32:56;;;;;;;8.50;3.42;;;;;;;;;;6213708;28;20061;-70
2022/05/24 04:35:58;;;;;;;2.15;1.75;;;;;;;;;;6212958;28;20050;-70
2022/05/24 04:39:00;;;;;;;7.78;2.80;;;;;;;;;;6211045;28;20101;-70
2022/05/24 04:42:21;;;;;;;8.00;2.55;;;;;;;;;;6212374;28;20054;-70
2022/05/24 04:45:23;;;;;;;7.25;2.50;;;;;;;;;;6211543;28;20151;-70
2022/05/24 04:48:26;;;;;;;14.38;3.20;;;;;;;;;;6215273;28;20248;-71
2022/05/24 04:51:28;;;;;;;9.98;2.90;;;;;;;;;;6212786;28;20097;-71
2022/05/24 04:54:30;;;;;;;11.68;3.08;;;;;;;;;;6210837;28;20105;-71
2022/05/24 04:57:31;;;;;;;11.95;3.30;;;;;;;;;;6213166;28;20060;-71
2022/05/24 05:00:33;;;;;;;9.10;2.80;;;;;;;;;;6211100;28;20466;-70
2022/05/24 05:03:36;;;;;;;6.95;3.42;;;;;;;;;;6220659;28;20096;-69
2022/05/24 05:06:38;;;;;;;4.60;2.83;;;;;;;;;;6214237;28;20058;-70
2022/05/24 05:09:39;;;;;;;6.45;2.75;;;;;;;;;;6214364;28;20128;-71
2022/05/24 05:12:41;;;;;;;3.30;2.65;;;;;;;;;;6214347;28;20045;-68
2022/05/24 05:15:43;;;;;;;16.92;3.28;;;;;;;;;;6208729;28;20045;-70
2022/05/24 05:18:46;;;;;;;7.57;3.72;;;;;;;;;;6211718;28;20101;-70
2022/05/24 05:21:48;;;;;;;5.97;3.33;;;;;;;;;;6210161;28;20101;-69
2022/05/24 05:24:50;;;;;;;5.95;3.08;;;;;;;;;;6216153;28;20058;-70
2022/05/24 05:27:51;;;;;;;6.30;3.58;;;;;;;;;;6212956;28;20065;-68
2022/05/24 05:34:14;;;;;;;8.63;5.13;;;;;;;;;;6210525;28;20050;-68
2022/05/24 05:37:16;;;;;;;9.05;5.15;;;;;;;;;;6214395;28;20050;-68
2022/05/24 05:40:17;;;;;;;9.82;5.88;;;;;;;;;;6216747;28;20050;-69
2022/05/24 05:43:19;;;;;;;14.25;7.25;;;;;;;;;;6218606;28;20046;-69
2022/05/24 05:46:21;;;;;;;13.57;7.47;;;;;;;;;;6210927;28;20054;-69
2022/05/24 05:49:24;;;;;;;16.40;7.60;;;;;;;;;;6209309;28;20109;-69
2022/05/24 05:52:25;;;;;;;15.00;8.45;;;;;;;;;;6210004;28;20214;-69
2022/05/24 05:55:27;;;;;;;15.70;7.97;;;;;;;;;;6212937;28;20356;-69
2022/05/24 05:58:30;;;;;;;17.73;8.90;;;;;;;;;;6213170;28;20046;-68
2022/05/24 06:01:31;;;;;;;16.90;8.77;;;;;;;;;;6213643;28;20049;-69
2022/05/24 06:04:34;;;;;;;11.40;7.32;;;;;;;;;;6207417;28;20062;-69
2022/05/24 06:07:36;;;;;;;13.27;8.90;;;;;;;;;;6210603;28;20046;-69
2022/05/24 06:10:38;;;;;;;15.60;9.63;;;;;;;;;;6209754;28;20096;-67
2022/05/24 06:13:40;;;;;;;14.30;8.60;;;;;;;;;;6208130;28;20349;-68
2022/05/24 06:16:42;;;;;;;19.92;10.65;;;;;;;;;;6209973;28;20058;-69
2022/05/24 06:19:45;;;;;;;18.75;9.85;;;;;;;;;;6209329;28;20133;-69
2022/05/24 06:22:49;;;;;;;15.30;10.13;;;;;;;;;;6209031;28;20173;-69
2022/05/24 06:25:51;;;;;;;18.05;9.80;;;;;;;;;;6211067;28;20042;-69
2022/05/24 06:28:53;;;;;;;19.35;10.90;;;;;;;;;;6207741;28;20253;-72
2022/05/24 06:31:54;;;;;;;15.55;9.98;;;;;;;;;;6212416;28;20046;-72
2022/05/24 06:34:57;;;;;;;15.98;10.00;;;;;;;;;;6213805;28;20272;-72
2022/05/24 06:37:59;;;;;;;25.05;18.27;;;;;;;;;;6204272;28;20046;-71
2022/05/24 06:41:01;;;;;;;24.48;14.50;;;;;;;;;;6207121;28;20042;-69
2022/05/24 06:44:02;;;;;;;19.45;13.00;;;;;;;;;;6203246;28;20244;-67
2022/05/24 06:47:04;;;;;;;32.60;20.30;;;;;;;;;;6205397;28;20121;-69
2022/05/24 06:50:09;;;;;;;22.02;15.43;;;;;;;;;;6204611;28;20267;-69
2022/05/24 06:53:11;;;;;;;23.98;16.40;;;;;;;;;;6204420;28;20058;-70
2022/05/24 06:56:13;;;;;;;15.40;11.35;;;;;;;;;;6205626;28;20052;-71
2022/05/24 07:02:34;;;;;;;16.33;9.05;;;;;;;;;;6206829;28;20266;-70
2022/05/24 07:05:38;;;;;;;14.40;7.97;;;;;;;;;;6211327;28;20105;-70
2022/05/24 07:08:39;;;;;;;13.73;7.03;;;;;;;;;;6210029;28;20167;-70
2022/05/24 07:11:41;;;;;;;14.82;6.75;;;;;;;;;;6210217;28;20079;-70
2022/05/24 07:14:44;;;;;;;11.48;6.72;;;;;;;;;;6208731;28;20058;-70
2022/05/24 07:17:46;;;;;;;13.45;7.63;;;;;;;;;;6211063;28;20050;-70
2022/05/24 07:20:49;;;;;;;11.10;7.20;;;;;;;;;;6207820;28;20068;-70
2022/05/24 07:23:51;;;;;;;15.65;8.18;;;;;;;;;;6207032;28;20046;-69
2022/05/24 07:26:53;;;;;;;8.65;7.22;;;;;;;;;;6207365;28;20117;-70
2022/05/24 07:29:55;;;;;;;12.60;6.63;;;;;;;;;;6198443;28;20214;-69
2022/05/24 07:32:57;;;;;;;14.10;6.72;;;;;;;;;;6196282;28;20057;-70
2022/05/24 07:36:00;;;;;;;11.85;7.10;;;;;;;;;;6204686;28;20053;-70
2022/05/24 07:39:02;;;;;;;13.23;6.82;;;;;;;;;;6210804;28;20046;-70
2022/05/24 07:48:43;;;;;;;12.05;6.70;;;;;;;;;;6212122;28;20348;-70
2022/05/24 07:51:46;;;;;;;13.50;6.63;;;;;;;;;;6208231;28;20060;-69
2022/05/24 07:54:48;;;;;;;;;;;;;;;;;;6210667;28;20096;-70
2022/05/24 07:57:49;;;;;;;12.82;7.30;;;;;;;;;;6206083;28;19933;-69
2022/05/24 08:00:52;;;;;;;10.32;6.55;;;;;;;;;;6200106;28;20058;-69
2022/05/24 08:03:54;;;;;;;;;;;;;;;;;;6194838;28;21068;-69
2022/05/24 08:06:57;;;;;;;12.68;6.65;;;;;;;;;;6194672;28;20196;-69
2022/05/24 08:09:58;;;;;;;;;;;;;;;;;;6195767;28;20062;-70
2022/05/24 08:13:00;;;;;;;12.98;7.43;;;;;;;;;;6201684;28;20105;-70
2022/05/24 08:16:01;;;;;;;13.57;7.82;;;;;;;;;;6196129;28;20191;-71
2022/05/24 08:19:04;;;;;;;11.48;7.03;;;;;;;;;;6194876;28;20053;-70
2022/05/24 08:22:08;;;;;;;10.68;6.32;;;;;;;;;;6196055;28;20360;-70
2022/05/24 08:25:11;;;;;;;12.25;7.22;;;;;;;;;;6193173;28;20293;-70
2022/05/24 08:28:13;;;;;;;10.18;5.97;;;;;;;;;;6195352;28;20054;-70
2022/05/24 08:31:16;;;;;;;10.55;5.93;;;;;;;;;;6196471;28;20042;-70
2022/05/24 08:34:18;;;;;;;19.35;5.82;;;;;;;;;;6192605;28;20054;-70
2022/05/24 08:37:22;;;;;;;10.55;4.90;;;;;;;;;;6194975;28;20699;-70
2022/05/24 08:40:24;;;;;;;9.48;4.63;;;;;;;;;;6195045;28;20273;-70
2022/05/24 08:43:46;;;;;;;8.38;5.20;;;;;;;;;;6199027;28;20069;-71
2022/05/24 08:50:09;;;;;;;8.00;6.00;;;;;;;;;;6196104;28;20054;-71
2022/05/24 08:53:15;;;;;;;8.52;5.95;;;;;;;;;;6196768;28;20094;-70
2022/05/24 08:56:19;;;;;;;7.93;5.70;;;;;;;;;;6197849;28;20092;-71
2022/05/24 08:59:27;;;;;;;7.53;5.65;;;;;;;;;;6194426;28;20222;-71
2022/05/24 09:02:29;;;;;;;11.73;6.45;;;;;;;;;;6193895;28;20050;-70
2022/05/24 09:05:35;;;;;;;11.13;7.18;;;;;;;;;;6194108;28;20125;-70
2022/05/24 09:08:43;;;;;;;11.57;7.57;;;;;;;;;;6195381;28;20569;-70
2022/05/24 09:11:54;;;;;;;8.88;7.30;;;;;;;;;;6204767;28;20050;-70
2022/05/24 09:15:10;;;;;;;10.85;5.90;;;;;;;;;;6209107;28;20064;-70
2022/05/24 09:18:17;;;;;;;10.30;6.50;;;;;;;;;;6209426;28;20080;-73
2022/05/24 09:21:22;;;;;;;9.13;6.50;;;;;;;;;;6212691;28;20070;-72
2022/05/24 09:24:32;;;;;;;11.75;7.07;;;;;;;;;;6212705;28;20392;-72
2022/05/24 09:27:49;;;;;;;8.00;6.30;;;;;;;;;;6215651;28;20121;-73
2022/05/24 09:30:50;;;;;;;8.77;5.78;;;;;;;;;;6211490;28;20042;-71
2022/05/24 09:33:57;;;;;;;12.07;6.20;;;;;;;;;;6212302;28;20257;-71
2022/05/24 09:37:01;;;;;;;10.30;6.65;;;;;;;;;;6209589;28;20309;-71
2022/05/24 09:40:07;;;;;;;12.02;6.53;;;;;;;;;;6209828;28;20053;-72
2022/05/24 09:43:18;;;;;;;11.25;7.55;;;;;;;;;;6211539;28;20057;-71
2022/05/24 09:46:24;;;;;;;9.07;7.30;;;;;;;;;;6211151;28;20341;-70
2022/05/24 09:49:28;;;;;;;10.32;6.40;;;;;;;;;;6208193;28;20050;-70
2022/05/24 09:52:30;;;;;;;9.65;5.53;;;;;;;;;;6213562;28;20062;-70
2022/05/24 09:55:38;;;;;;;;;;;;;;;;;;6201745;28;20349;-70
2022/05/24 09:58:41;;;;;;;11.00;6.90;;;;;;;;;;6204166;28;19993;-70
2022/05/24 10:01:43;;;;;;;10.48;7.07;;;;;;;;;;6210964;28;20109;-70
2022/05/24 10:04:46;;;;;;;10.35;7.15;;;;;;;;;;6207337;28;20057;-70
2022/05/24 10:07:58;;;;;;;10.68;7.57;;;;;;;;;;6196392;28;20058;-69
2022/05/24 10:11:01;;;;;;;7.27;5.97;;;;;;;;;;6195626;28;20230;-71
2022/05/24 10:14:13;;;;;;;11.07;6.40;;;;;;;;;;6197590;28;20066;-71
2022/05/24 10:17:22;;;;;;;8.48;6.28;;;;;;;;;;6199683;28;20225;-71
2022/05/24 10:20:29;;;;;;;12.85;6.97;;;;;;;;;;6196066;28;20566;-71
2022/05/24 10:23:41;;;;;;;11.27;6.80;;;;;;;;;;6197492;28;20053;-71
2022/05/24 10:26:52;;;;;;;8.85;5.85;;;;;;;;;;6198996;28;20058;-72
2022/05/24 10:29:58;;;;;;;10.73;7.20;;;;;;;;;;6195565;28;20054;-72
2022/05/24 10:39:53;;;;;;;11.70;8.55;;;;;;;;;;6202430;28;20054;-72
2022/05/24 10:43:06;;;;;;;8.70;5.82;;;;;;;;;;6205520;28;20057;-71
2022/05/24 10:46:17;;;;;;;11.68;6.50;;;;;;;;;;6209105;28;20341;-72
2022/05/24 10:49:22;;;;;;;11.48;6.38;;;;;;;;;;6209475;28;20780;-70
2022/05/24 10:52:29;;;;;;;8.25;6.15;;;;;;;;;;6197502;28;20054;-71
2022/05/24 10:55:36;;;;;;;12.25;6.63;;;;;;;;;;6188270;28;20053;-72
2022/05/24 10:58:41;;;;;;;13.65;6.10;;;;;;;;;;6195893;28;20076;-71
2022/05/24 11:01:50;;;;;;;15.27;7.35;;;;;;;;;;6196861;28;20046;-71
2022/05/24 11:04:54;;;;;;;10.10;6.50;;;;;;;;;;6195512;28;20252;-72
2022/05/24 11:08:00;;;;;;;7.93;5.60;;;;;;;;;;6193442;28;20050;-72
2022/05/24 11:11:06;;;;;;;10.15;5.90;;;;;;;;;;6196344;28;20046;-72
2022/05/24 11:14:14;;;;;;;10.23;6.68;;;;;;;;;;6195748;28;20054;-71
2022/05/24 11:17:18;;;;;;;8.23;5.65;;;;;;;;;;6192851;28;20049;-73
2022/05/24 11:20:25;;;;;;;12.07;6.47;;;;;;;;;;6195677;28;20073;-72
2022/05/24 11:23:29;;;;;;;11.85;7.22;;;;;;;;;;6193957;28;20054;-73
2022/05/24 11:26:34;;;;;;;9.65;5.07;;;;;;;;;;6196477;28;20061;-71
2022/05/24 11:29:45;;;;;;;13.77;7.00;;;;;;;;;;6195832;28;20207;-71
2022/05/24 11:32:50;;;;;;;12.40;6.50;;;;;;;;;;6194267;28;20052;-71
2022/05/24 11:35:52;;;;;;;12.13;5.68;;;;;;;;;;6193975;28;20159;-70
2022/05/24 11:38:53;;;;;;;;;;;;;;;;;;6194931;28;20353;-71
2022/05/24 11:42:21;;;;;;;8.65;5.85;;;;;;;;;;6198707;28;19918;-71
2022/05/24 11:45:59;;;;;;;14.20;6.43;;;;;;;;;;6186572;28;20058;-70
2022/05/24 11:49:03;;;;;;;13.27;6.40;;;;;;;;;;6194951;28;20058;-72
2022/05/24 11:52:55;;;;;;;15.18;5.70;;;;;;;;;;6195051;28;20072;-70
2022/05/24 11:56:18;;;;;;;11.82;5.22;;;;;;;;;;6148317;28;20246;-71
2022/05/24 11:59:50;;;;;;;9.55;6.88;;;;;;;;;;6139020;28;20126;-70
2022/05/24 12:09:54;;;;;;;12.13;7.53;;;;;;;;;;6069356;29;20041;-71
2022/05/24 12:13:28;;;;;;;12.38;7.57;;;;;;;;;;6061046;29;20061;-71
2022/05/24 12:16:37;;;;;;;10.75;6.57;;;;;;;;;;6064675;29;20072;-72
2022/05/24 12:19:48;;;;;;;11.88;5.82;;;;;;;;;;6057865;29;20159;-73
2022/05/24 12:23:14;;;;;;;13.02;6.28;;;;;;;;;;6057569;29;20060;-70
2022/05/24 12:26:17;;;;;;;12.32;6.65;;;;;;;;;;6058530;29;20057;-71
2022/05/24 12:29:19;;;;;;;13.27;6.20;;;;;;;;;;6060041;29;20291;-71
2022/05/24 12:32:22;;;;;;;9.20;4.90;;;;;;;;;;6096687;29;20322;-71
2022/05/24 12:39:13;;;;;;;13.90;4.72;;;;;;;;;;6352524;27;21190;-72
2022/05/24 12:42:15;;;;;;;14.45;5.38;;;;;;;;;;6319215;27;20052;-74
2022/05/24 12:45:23;;;;;;;13.50;5.10;;;;;;;;;;6317502;28;20117;-73
2022/05/24 12:48:35;;;;;;;10.27;5.80;;;;;;;;;;6316895;27;20055;-73
2022/05/24 12:51:38;;;;;;;9.75;5.65;;;;;;;;;;6318220;28;20302;-73
2022/05/24 12:54:45;;;;;;;9.05;5.40;;;;;;;;;;6313686;28;20051;-75
2022/05/24 12:57:47;;;;;;;14.05;6.25;;;;;;;;;;6328911;28;20055;-74
2022/05/24 13:00:48;;;;;;;9.80;5.43;;;;;;;;;;6335148;27;20130;-75
2022/05/24 13:04:01;;;;;;;11.32;6.15;;;;;;;;;;6340861;27;20047;-71
2022/05/24 13:07:16;;;;;;;11.40;5.15;;;;;;;;;;6309356;27;20044;-73
2022/05/24 13:10:25;;;;;;;13.02;4.90;;;;;;;;;;6312181;27;20166;-73
2022/05/24 13:13:27;;;;;;;6.68;4.93;;;;;;;;;;6310159;27;20048;-74
2022/05/24 13:16:29;;;;;;;8.77;4.40;;;;;;;;;;6308868;27;20094;-72
2022/05/24 13:19:30;;;;;;;10.25;4.78;;;;;;;;;;6316214;28;20040;-73
2022/05/24 13:22:41;;;;;;;9.48;4.30;;;;;;;;;;6314372;28;20239;-72
2022/05/24 13:25:50;;;;;;;8.30;4.82;;;;;;;;;;6329465;28;20306;-72
2022/05/24 13:28:55;;;;;;;6.18;4.15;;;;;;;;;;6338691;28;20101;-72
2022/05/24 13:35:20;;;;;;;9.85;5.25;;;;;;;;;;6340765;28;20247;-71
2022/05/24 13:38:24;;;;;;;7.37;4.20;;;;;;;;;;6342730;28;20067;-70
2022/05/24 13:41:31;;;;;;;9.90;4.80;;;;;;;;;;6341752;28;20062;-72
2022/05/24 13:44:35;;;;;;;7.70;4.22;;;;;;;;;;6319570;28;20075;-73
2022/05/24 13:47:38;;;;;;;7.20;4.05;;;;;;;;;;6318996;28;20142;-72
2022/05/24 13:50:41;;;;;;;9.27;4.40;;;;;;;;;;6316672;28;20044;-72
2022/05/24 13:53:42;;;;;;;7.55;3.95;;;;;;;;;;6318693;28;20235;-72
2022/05/24 13:56:49;;;;;;;9.57;4.80;;;;;;;;;;6321908;28;20045;-72
2022/05/24 13:59:58;;;;;;;13.48;5.05;;;;;;;;;;6316835;28;20071;-72
2022/05/24 14:03:25;;;;;;;9.27;4.30;;;;;;;;;;6317571;28;20147;-71
2022/05/24 14:06:28;;;;;;;14.55;4.40;;;;;;;;;;6304876;28;20408;-71
2022/05/24 14:09:31;;;;;;;8.63;3.97;;;;;;;;;;6310378;28;20431;-72
2022/05/24 14:12:34;;;;;;;11.15;4.55;;;;;;;;;;6311909;28;20111;-72
2022/05/24 14:15:36;;;;;;;8.05;4.63;;;;;;;;;;6315012;28;20051;-71
2022/05/24 14:18:38;;;;;;;15.10;4.28;;;;;;;;;;6314700;28;20052;-72
2022/05/24 14:21:41;;;;;;;5.93;3.93;;;;;;;;;;6316868;28;20211;-73
2022/05/24 14:24:43;;;;;;;;;;;;;;;;;;6316029;28;20056;-73
2022/05/24 14:27:46;;;;;;;5.63;3.53;;;;;;;;;;6315909;28;19927;-73
2022/05/24 14:30:48;;;;;;;8.75;4.00;;;;;;;;;;6318792;28;20119;-73
2022/05/24 14:33:50;;;;;;;10.18;3.50;;;;;;;;;;6309863;28;20064;-73
2022/05/24 14:36:53;;;;;;;9.88;3.88;;;;;;;;;;6318706;28;20217;-72
2022/05/24 14:39:55;;;;;;;12.82;3.95;;;;;;;;;;6301373;28;20056;-73
2022/05/24 14:43:00;;;;;;;11.98;4.28;;;;;;;;;;6309657;27;20057;-73
2022/05/24 14:46:01;;;;;;;12.15;3.92;;;;;;;;;;6315012;28;20058;-73
2022/05/24 14:49:04;;;;;;;9.00;3.75;;;;;;;;;;6314804;28;20138;-74
2022/05/24 14:52:08;;;;;;;14.15;3.78;;;;;;;;;;6314569;28;20239;-73
2022/05/24 14:55:15;;;;;;;6.93;3.42;;;;;;;;;;6321379;28;20044;-73
2022/05/24 14:58:18;;;;;;;7.32;4.03;;;;;;;;;;6315196;28;20043;-74
2022/05/24 15:01:19;;;;;;;9.55;3.45;;;;;;;;;;6315859;28;20063;-73
2022/05/24 15:04:21;;;;;;;10.18;3.88;;;;;;;;;;6317549;28;20339;-74
2022/05/24 15:17:35;;;;;;;23.02;13.63;;;;;;;;;;6319184;28;20059;-71
2022/05/24 15:20:37;;;;;;;6.53;3.42;;;;;;;;;;6321999;28;20054;-71
2022/05/24 15:23:40;;;;;;;5.50;3.95;;;;;;;;;;6318951;28;20232;-71
2022/05/24 15:26:44;;;;;;;8.43;3.85;;;;;;;;;;6319175;28;20361;-70
2022/05/24 15:29:47;;;;;;;7.97;3.67;;;;;;;;;;6321938;28;20081;-71
2022/05/24 15:32:50;;;;;;;6.38;3.97;;;;;;;;;;6320176;28;20056;-71
2022/05/24 15:35:51;;;;;;;;;;;;;;;;;;6319091;28;20279;-70
2022/05/24 15:38:53;;;;;;;7.20;4.57;;;;;;;;;;6320524;28;19916;-71
2022/05/24 15:41:55;;;;;;;7.07;3.92;;;;;;;;;;6320817;28;20068;-71
2022/05/24 15:44:58;;;;;;;7.07;3.95;;;;;;;;;;6320434;27;20141;-70
2022/05/24 15:48:00;;;;;;;9.32;4.20;;;;;;;;;;6321159;27;20238;-71
2022/05/24 15:51:02;;;;;;;9.00;4.70;;;;;;;;;;6321875;28;20048;-71
2022/05/24 15:54:04;;;;;;;12.13;4.35;;;;;;;;;;6317955;27;20052;-72
2022/05/24 15:57:06;;;;;;;9.07;4.78;;;;;;;;;;6315287;28;20051;-71
2022/05/24 16:00:12;;;;;;;8.25;4.00;;;;;;;;;;6317887;28;20165;-71
2022/05/24 16:03:13;;;;;;;245.52;18.17;;;;;;;;;;6321335;28;20048;-70
2022/05/24 16:12:54;;;;;;;33.70;3.67;;;;;;;;;;6320591;28;20378;-69
2022/05/24 16:15:59;;;;;;;12.18;3.30;;;;;;;;;;6316970;28;20055;-68
2022/05/24 16:19:01;;;;;;;12.23;2.33;;;;;;;;;;6324632;28;20328;-68
2022/05/24 16:22:03;;;;;;;5.15;2.03;;;;;;;;;;6319410;28;20066;-68
2022/05/24 16:25:06;;;;;;;11.60;2.03;;;;;;;;;;6319032;28;20048;-68
2022/05/24 16:28:11;;;;;;;7.07;2.45;;;;;;;;;;6318720;28;20335;-69
2022/05/24 16:31:14;;;;;;;5.30;2.22;;;;;;;;;;6318481;28;20217;-68
2022/05/24 16:34:17;;;;;;;5.82;2.60;;;;;;;;;;6318512;28;20271;-68
2022/05/24 16:37:19;;;;;;;8.30;4.13;;;;;;;;;;6317742;28;20425;-69
2022/05/24 16:40:21;;;;;;;7.53;3.25;;;;;;;;;;6320740;28;20049;-68
2022/05/24 16:43:23;;;;;;;8.98;4.10;;;;;;;;;;6320401;28;20085;-68
2022/05/24 16:46:26;;;;;;;12.48;4.00;;;;;;;;;;6319493;27;20262;-69
2022/05/24 16:49:28;;;;;;;8.27;4.10;;;;;;;;;;6316376;28;21689;-67
2022/05/24 16:52:31;;;;;;;13.40;4.57;;;;;;;;;;6316170;28;20327;-68
2022/05/24 16:58:52;;;;;;;12.07;5.50;;;;;;;;;;6318875;28;19920;-69
2022/05/24 17:01:55;;;;;;;12.63;5.20;;;;;;;;;;6317742;28;20098;-69
2022/05/24 17:04:58;;;;;;;11.63;5.50;;;;;;;;;;6317599;28;20121;-69
2022/05/24 17:08:00;;;;;;;13.65;5.38;;;;;;;;;;6316002;27;20052;-69
2022/05/24 17:11:01;;;;;;;13.50;6.10;;;;;;;;;;6318164;27;20044;-69
2022/05/24 17:14:03;;;;;;;9.20;5.47;;;;;;;;;;6316310;28;20048;-69
2022/05/24 17:17:06;;;;;;;8.93;5.50;;;;;;;;;;6318485;28;20115;-69
2022/05/24 17:20:10;;;;;;;;;;;;;;;;;;6316228;27;20376;-70
2022/05/24 17:23:12;;;;;;;7.97;4.95;;;;;;;;;;6321726;28;19923;-71
2022/05/24 17:26:14;;;;;;;10.23;5.00;;;;;;;;;;6325017;27;20052;-72
2022/05/24 17:29:15;;;;;;;8.35;5.85;;;;;;;;;;6326095;28;20049;-72
2022/05/24 17:32:21;;;;;;;13.18;5.82;;;;;;;;;;6321560;27;20110;-72
2022/05/24 17:35:23;;;;;;;13.18;4.80;;;;;;;;;;6320170;28;20273;-72
2022/05/24 17:38:25;;;;;;;10.95;5.25;;;;;;;;;;6322898;28;20104;-72
2022/05/24 17:41:27;;;;;;;7.45;4.80;;;;;;;;;;6323422;27;20055;-72
2022/05/24 17:44:29;;;;;;;9.75;5.10;;;;;;;;;;6323910;28;20045;-71
2022/05/24 17:47:32;;;;;;;11.23;5.68;;;;;;;;;;6326784;27;20211;-71
2022/05/24 17:50:35;;;;;;;9.15;5.32;;;;;;;;;;6325863;27;20390;-71
2022/05/24 17:53:37;;;;;;;9.63;5.57;;;;;;;;;;6320423;28;20062;-70
2022/05/24 17:56:39;;;;;;;10.65;5.70;;;;;;;;;;6320235;28;20044;-70
2022/05/24 17:59:41;;;;;;;9.60;5.43;;;;;;;;;;6322541;28;20056;-71
2022/05/24 18:02:44;;;;;;;8.25;4.68;;;;;;;;;;6325033;27;20327;-70
2022/05/24 18:05:45;;;;;;;7.32;4.57;;;;;;;;;;6322528;28;20062;-70
2022/05/24 18:08:47;;;;;;;6.65;4.32;;;;;;;;;;6325248;27;20052;-70
2022/05/24 18:11:49;;;;;;;6.22;4.03;;;;;;;;;;6321829;28;20120;-71
2022/05/24 18:14:50;;;;;;;5.53;3.70;;;;;;;;;;6320796;28;20048;-70
2022/05/24 18:17:53;;;;;;;8.70;4.28;;;;;;;;;;6321400;28;20097;-72
2022/05/24 18:20:56;;;;;;;6.32;4.03;;;;;;;;;;6319579;28;20121;-70
2022/05/24 18:24:00;;;;;;;5.53;4.10;;;;;;;;;;6319600;28;20055;-70
2022/05/24 18:33:48;;;;;;;9.15;4.18;;;;;;;;;;6314913;28;20044;-70
2022/05/24 18:36:51;;;;;;;5.30;4.35;;;;;;;;;;6322089;28;20059;-69
2022/05/24 18:39:53;;;;;;;8.23;5.03;;;;;;;;;;6327640;28;20052;-69
2022/05/24 18:42:55;;;;;;;9.88;6.18;;;;;;;;;;6323766;28;20059;-70
2022/05/24 18:45:58;;;;;;;78.20;39.67;;;;;;;;;;6326695;28;20228;-69
2022/05/24 18:49:01;;;;;;;;;;;;;;;;;;6322864;27;20068;-68
2022/05/24 18:52:04;;;;;;;14.57;7.80;;;;;;;;;;6324239;27;19983;-72
2022/05/24 18:55:06;;;;;;;13.77;6.40;;;;;;;;;;6327862;28;20335;-72
2022/05/24 18:58:09;;;;;;;11.90;6.57;;;;;;;;;;6324553;28;20048;-71
2022/05/24 19:01:12;;;;;;;8.00;5.45;;;;;;;;;;6326888;28;20655;-74
2022/05/24 19:04:15;;;;;;;11.15;6.10;;;;;;;;;;6325881;27;20239;-73
2022/05/24 19:07:21;;;;;;;8.40;6.28;;;;;;;;;;6327348;28;20044;-68
2022/05/24 19:10:24;;;;;;;12.93;6.40;;;;;;;;;;6325183;28;20076;-70
2022/05/24 19:13:26;;;;;;;12.55;6.53;;;;;;;;;;6325375;28;20286;-70
2022/05/24 19:16:28;;;;;;;11.75;7.00;;;;;;;;;;6325903;28;20101;-70
2022/05/24 19:19:31;;;;;;;10.00;6.43;;;;;;;;;;6321305;28;20052;-70
2022/05/24 19:22:34;;;;;;;14.68;6.78;;;;;;;;;;6325523;28;20112;-70
2022/05/24 19:25:36;;;;;;;10.60;7.07;;;;;;;;;;6323722;28;20062;-71
2022/05/24 19:28:38;;;;;;;13.32;7.05;;;;;;;;;;6327167;28;20097;-71
2022/05/24 19:31:40;;;;;;;13.07;7.22;;;;;;;;;;6329255;28;20057;-70
2022/05/24 19:34:43;;;;;;;11.73;7.35;;;;;;;;;;6324069;28;20235;-70
2022/05/24 19:37:46;;;;;;;10.82;5.95;;;;;;;;;;6325767;28;20196;-71
2022/05/24 19:44:10;;;;;;;8.90;5.97;;;;;;;;;;6319944;27;20307;-71
2022/05/24 19:47:12;;;;;;;9.10;6.75;;;;;;;;;;6321808;28;20054;-71